createdAt,value
2022-11-25T00:01:56.192Z,99.4
2022-11-25T00:02:56.275Z,99.8
2022-11-25T00:03:56.121Z,100
2022-11-25T00:04:56.121Z,99.9
2022-11-25T00:05:56.120Z,100
2022-11-25T00:06:56.125Z,100
2022-11-25T00:07:56.200Z,100
2022-11-25T00:08:56.201Z,100
2022-11-25T00:10:56.119Z,100
2022-11-25T00:11:56.114Z,100
2022-11-25T00:12:56.125Z,100
2022-11-25T00:13:56.118Z,100
2022-11-25T00:16:56.199Z,100
2022-11-25T00:17:56.114Z,100
2022-11-25T00:18:56.120Z,100
2022-11-25T00:19:56.500Z,100
2022-11-25T00:20:56.111Z,100
2022-11-25T00:21:56.114Z,100
2022-11-25T00:23:56.122Z,100
2022-11-25T00:24:56.122Z,100
2022-11-25T00:25:56.110Z,100
2022-11-25T00:26:56.118Z,100
2022-11-25T00:28:56.123Z,100
2022-11-25T00:29:56.113Z,100
2022-11-25T00:30:56.122Z,100
2022-11-25T00:31:56.196Z,100
2022-11-25T00:32:56.124Z,100
2022-11-25T00:33:56.117Z,100
2022-11-25T00:34:56.117Z,100
2022-11-25T00:35:56.111Z,100
2022-11-25T00:36:56.110Z,100
2022-11-25T00:37:56.121Z,100
2022-11-25T00:38:56.120Z,100
2022-11-25T00:39:56.149Z,100
2022-11-25T00:40:56.118Z,100
2022-11-25T00:41:56.136Z,100
2022-11-25T00:42:56.142Z,100
2022-11-25T00:43:56.113Z,100
2022-11-25T00:44:56.114Z,100
2022-11-25T00:45:56.214Z,99.8
2022-11-25T00:49:56.109Z,99.9
2022-11-25T00:50:56.111Z,100
2022-11-25T00:51:56.110Z,100
2022-11-25T00:52:56.117Z,100
2022-11-25T00:53:59.133Z,100
2022-11-25T00:54:56.125Z,100
2022-11-25T00:55:56.130Z,100
2022-11-25T00:56:56.119Z,100
2022-11-25T00:57:56.126Z,100
2022-11-25T00:58:56.115Z,100
2022-11-25T00:59:56.111Z,100
2022-11-25T01:00:56.126Z,100
2022-11-25T01:01:56.171Z,100
2022-11-25T01:02:56.112Z,100
2022-11-25T01:04:56.119Z,100
2022-11-25T01:05:56.118Z,100
2022-11-25T01:06:56.109Z,100
2022-11-25T01:07:56.127Z,100
2022-11-25T01:08:56.114Z,100
2022-11-25T01:09:56.134Z,100
2022-11-25T01:10:56.139Z,100
2022-11-25T01:11:56.114Z,100
2022-11-25T01:12:56.114Z,100
2022-11-25T01:14:00.825Z,100
2022-11-25T01:15:56.112Z,100
2022-11-25T01:16:56.165Z,100
2022-11-25T01:17:56.107Z,100
2022-11-25T01:18:56.143Z,100
2022-11-25T01:19:56.114Z,100
2022-11-25T01:21:56.115Z,100
2022-11-25T01:22:56.117Z,100
2022-11-25T01:24:56.105Z,100
2022-11-25T01:25:56.116Z,100
2022-11-25T01:26:56.112Z,100
2022-11-25T01:27:56.113Z,100
2022-11-25T01:28:56.115Z,100
2022-11-25T01:29:56.110Z,100
2022-11-25T01:30:56.106Z,100
2022-11-25T01:31:56.262Z,100
2022-11-25T01:32:56.111Z,100
2022-11-25T01:33:56.110Z,100
2022-11-25T01:34:56.121Z,100
2022-11-25T01:35:56.111Z,100
2022-11-25T01:36:56.142Z,100
2022-11-25T01:37:56.113Z,100
2022-11-25T01:38:56.117Z,100
2022-11-25T01:39:56.113Z,100
2022-11-25T01:40:56.115Z,100
2022-11-25T01:42:56.111Z,100
2022-11-25T01:43:56.107Z,100
2022-11-25T01:44:56.109Z,100
2022-11-25T01:45:56.184Z,100
2022-11-25T01:46:56.116Z,100
2022-11-25T01:48:56.117Z,100
2022-11-25T01:49:56.114Z,100
2022-11-25T01:50:56.107Z,100
2022-11-25T01:51:56.121Z,100
2022-11-25T01:52:56.119Z,100
2022-11-25T01:53:56.109Z,100
2022-11-25T01:54:56.121Z,100
2022-11-25T01:55:56.108Z,100
2022-11-25T01:56:56.177Z,100
2022-11-25T01:57:56.114Z,100
2022-11-25T01:58:56.117Z,100
2022-11-25T01:59:56.113Z,100
2022-11-25T02:00:56.202Z,100
2022-11-25T02:03:56.108Z,100
2022-11-25T02:04:56.120Z,100
2022-11-25T02:05:56.106Z,100
2022-11-25T02:06:56.117Z,100
2022-11-25T02:07:56.192Z,100
2022-11-25T02:08:56.114Z,100
2022-11-25T02:09:56.125Z,100
2022-11-25T02:10:56.110Z,100
2022-11-25T02:11:56.107Z,100
2022-11-25T02:12:56.142Z,100
2022-11-25T02:14:56.116Z,100
2022-11-25T02:15:56.117Z,100
2022-11-25T02:16:56.216Z,100
2022-11-25T02:17:56.118Z,100
2022-11-25T02:18:56.110Z,100
2022-11-25T02:19:56.114Z,100
2022-11-25T02:20:56.110Z,100
2022-11-25T02:21:56.108Z,100
2022-11-25T02:22:56.104Z,100
2022-11-25T02:23:56.142Z,100
2022-11-25T02:24:56.110Z,100
2022-11-25T02:25:56.117Z,100
2022-11-25T02:26:56.113Z,100
2022-11-25T02:27:56.115Z,100
2022-11-25T02:28:56.112Z,100
2022-11-25T02:29:56.111Z,100
2022-11-25T02:30:56.116Z,100
2022-11-25T02:31:56.160Z,100
2022-11-25T02:32:56.113Z,100
2022-11-25T02:33:56.109Z,100
2022-11-25T02:36:56.120Z,100
2022-11-25T02:37:56.111Z,100
2022-11-25T02:38:56.110Z,100
2022-11-25T02:40:56.105Z,100
2022-11-25T02:41:56.116Z,100
2022-11-25T02:42:56.108Z,100
2022-11-25T02:43:56.141Z,100
2022-11-25T02:44:56.116Z,100
2022-11-25T02:45:56.164Z,100
2022-11-25T02:46:56.108Z,100
2022-11-25T02:47:56.110Z,100
2022-11-25T02:49:11.573Z,100
2022-11-25T02:49:56.114Z,100
2022-11-25T02:50:56.115Z,100
2022-11-25T02:51:56.117Z,100
2022-11-25T02:52:56.171Z,100
2022-11-25T02:53:56.113Z,100
2022-11-25T02:54:56.109Z,100
2022-11-25T02:56:56.116Z,100
2022-11-25T02:57:56.111Z,100
2022-11-25T02:58:56.112Z,100
2022-11-25T02:59:56.108Z,100
2022-11-25T03:01:56.209Z,100
2022-11-25T03:02:56.111Z,100
2022-11-25T03:03:56.111Z,100
2022-11-25T03:04:56.111Z,100
2022-11-25T03:06:56.120Z,100
2022-11-25T03:07:56.162Z,100
2022-11-25T03:08:56.107Z,100
2022-11-25T03:09:56.112Z,100
2022-11-25T03:11:56.117Z,100
2022-11-25T03:12:56.109Z,100
2022-11-25T03:13:56.106Z,100
2022-11-25T03:14:56.142Z,100
2022-11-25T03:15:56.117Z,100
2022-11-25T03:17:56.126Z,100
2022-11-25T03:18:56.108Z,100
2022-11-25T03:19:56.142Z,100
2022-11-25T03:20:56.114Z,100
2022-11-25T03:21:56.127Z,100
2022-11-25T03:22:56.106Z,100
2022-11-25T03:23:56.112Z,100
2022-11-25T03:24:56.116Z,100
2022-11-25T03:25:56.112Z,100
2022-11-25T03:26:56.110Z,100
2022-11-25T03:27:56.116Z,100
2022-11-25T03:28:56.110Z,100
2022-11-25T03:29:56.124Z,100
2022-11-25T03:30:56.116Z,100
2022-11-25T03:31:56.166Z,100
2022-11-25T03:32:56.120Z,100
2022-11-25T03:33:56.134Z,100
2022-11-25T03:34:56.108Z,100
2022-11-25T03:37:56.119Z,100
2022-11-25T03:39:56.117Z,100
2022-11-25T03:40:56.117Z,100
2022-11-25T03:42:56.125Z,100
2022-11-25T03:43:56.112Z,100
2022-11-25T03:45:56.197Z,100
2022-11-25T03:46:56.106Z,100
2022-11-25T03:47:56.117Z,100
2022-11-25T03:48:56.105Z,100
2022-11-25T03:49:56.109Z,100
2022-11-25T03:50:56.125Z,100
2022-11-25T03:51:56.114Z,100
2022-11-25T03:52:56.114Z,100
2022-11-25T03:56:56.115Z,100
2022-11-25T03:57:56.124Z,100
2022-11-25T03:58:56.117Z,100
2022-11-25T03:59:56.105Z,100
2022-11-25T04:00:56.188Z,100
2022-11-25T04:01:56.136Z,100
2022-11-25T04:02:56.180Z,100
2022-11-25T04:03:56.112Z,100
2022-11-25T04:04:56.107Z,100
2022-11-25T04:05:56.112Z,100
2022-11-25T04:06:56.115Z,100
2022-11-25T04:07:58.064Z,100
2022-11-25T04:09:56.110Z,100
2022-11-25T04:10:56.112Z,100
2022-11-25T04:14:56.113Z,100
2022-11-25T04:15:56.117Z,100
2022-11-25T04:16:56.433Z,100
2022-11-25T04:17:56.116Z,100
2022-11-25T04:18:56.110Z,100
2022-11-25T04:19:56.119Z,100
2022-11-25T04:20:56.115Z,100
2022-11-25T04:21:56.114Z,100
2022-11-25T04:22:56.112Z,100
2022-11-25T04:23:58.180Z,100
2022-11-25T04:25:56.108Z,100
2022-11-25T04:27:56.132Z,100
2022-11-25T04:28:56.103Z,100
2022-11-25T04:29:56.115Z,100
2022-11-25T04:31:56.132Z,100
2022-11-25T04:32:56.113Z,100
2022-11-25T04:33:56.114Z,100
2022-11-25T04:34:56.106Z,100
2022-11-25T04:35:56.366Z,100
2022-11-25T04:37:56.107Z,100
2022-11-25T04:38:56.109Z,100
2022-11-25T04:39:56.116Z,100
2022-11-25T04:40:56.109Z,100
2022-11-25T04:43:02.452Z,100
2022-11-25T04:43:56.102Z,100
2022-11-25T04:45:21.474Z,100
2022-11-25T04:46:13.455Z,100
2022-11-25T04:46:56.160Z,100
2022-11-25T04:48:56.110Z,100
2022-11-25T04:49:56.109Z,100
2022-11-25T04:50:56.116Z,100
2022-11-25T04:51:56.114Z,100
2022-11-25T04:53:56.125Z,100
2022-11-25T04:54:56.117Z,100
2022-11-25T04:55:56.110Z,100
2022-11-25T04:56:56.114Z,100
2022-11-25T04:58:56.117Z,100
2022-11-25T04:59:56.102Z,100
2022-11-25T05:00:56.189Z,100
2022-11-25T05:01:56.115Z,100
2022-11-25T05:02:56.109Z,100
2022-11-25T05:03:57.684Z,100
2022-11-25T05:04:56.115Z,100
2022-11-25T05:05:56.136Z,100
2022-11-25T05:06:56.110Z,100
2022-11-25T05:07:56.167Z,100
2022-11-25T05:08:56.123Z,100
2022-11-25T05:09:56.119Z,100
2022-11-25T05:11:56.108Z,100
2022-11-25T05:13:56.108Z,100
2022-11-25T05:14:56.118Z,100
2022-11-25T05:15:56.114Z,100
2022-11-25T05:17:56.111Z,100
2022-11-25T05:18:56.127Z,100
2022-11-25T05:19:56.105Z,100
2022-11-25T05:20:56.115Z,100
2022-11-25T05:21:56.107Z,100
2022-11-25T05:22:56.116Z,100
2022-11-25T05:24:03.156Z,100
2022-11-25T05:24:56.113Z,100
2022-11-25T05:25:56.111Z,100
2022-11-25T05:26:56.106Z,100
2022-11-25T05:27:56.114Z,100
2022-11-25T05:28:56.109Z,100
2022-11-25T05:29:56.512Z,100
2022-11-25T05:30:56.224Z,100
2022-11-25T05:31:56.117Z,100
2022-11-25T05:33:56.106Z,100
2022-11-25T05:34:56.112Z,100
2022-11-25T05:35:56.115Z,100
2022-11-25T05:36:56.112Z,100
2022-11-25T05:38:56.135Z,100
2022-11-25T05:40:56.121Z,100
2022-11-25T05:41:56.106Z,100
2022-11-25T05:42:56.118Z,100
2022-11-25T05:43:56.143Z,100
2022-11-25T05:45:56.173Z,100
2022-11-25T05:46:56.121Z,100
2022-11-25T05:48:56.144Z,100
2022-11-25T05:49:56.136Z,100
2022-11-25T05:50:56.126Z,100
2022-11-25T05:51:56.116Z,100
2022-11-25T05:52:56.120Z,100
2022-11-25T05:53:56.111Z,100
2022-11-25T05:55:56.114Z,100
2022-11-25T05:56:56.117Z,100
2022-11-25T05:57:56.123Z,100
2022-11-25T05:58:56.106Z,100
2022-11-25T05:59:56.135Z,100
2022-11-25T06:00:56.117Z,100
2022-11-25T06:02:56.172Z,100
2022-11-25T06:03:56.109Z,100
2022-11-25T06:04:56.114Z,100
2022-11-25T06:05:56.114Z,100
2022-11-25T06:07:56.197Z,100
2022-11-25T06:08:56.114Z,100
2022-11-25T06:10:01.514Z,100
2022-11-25T06:10:56.108Z,100
2022-11-25T06:11:56.121Z,100
2022-11-25T06:12:56.116Z,100
2022-11-25T06:13:56.105Z,100
2022-11-25T06:16:56.115Z,100
2022-11-25T06:18:56.115Z,100
2022-11-25T06:19:56.111Z,100
2022-11-25T06:20:56.139Z,100
2022-11-25T06:21:56.116Z,100
2022-11-25T06:22:56.109Z,100
2022-11-25T06:23:50.647Z,100
2022-11-25T06:25:01.916Z,100
2022-11-25T06:25:56.116Z,100
2022-11-25T06:26:56.110Z,100
2022-11-25T06:28:12.303Z,100
2022-11-25T06:28:56.111Z,100
2022-11-25T06:29:56.113Z,100
2022-11-25T06:30:56.211Z,100
2022-11-25T06:31:56.118Z,100
2022-11-25T06:32:56.120Z,100
2022-11-25T06:33:56.118Z,100
2022-11-25T06:34:56.110Z,100
2022-11-25T06:35:56.113Z,100
2022-11-25T06:37:56.114Z,100
2022-11-25T06:38:56.115Z,100
2022-11-25T06:39:56.111Z,100
2022-11-25T06:41:00.255Z,100
2022-11-25T06:42:56.114Z,100
2022-11-25T06:44:56.119Z,100
2022-11-25T06:45:56.155Z,100
2022-11-25T06:46:56.171Z,100
2022-11-25T06:48:56.106Z,100
2022-11-25T06:49:56.112Z,100
2022-11-25T06:50:56.116Z,100
2022-11-25T06:51:56.136Z,100
2022-11-25T06:52:56.120Z,100
2022-11-25T06:53:56.116Z,100
2022-11-25T06:54:56.109Z,100
2022-11-25T06:55:56.135Z,100
2022-11-25T06:56:56.133Z,100
2022-11-25T06:58:56.107Z,100
2022-11-25T06:59:56.117Z,100
2022-11-25T07:00:56.110Z,100
2022-11-25T07:01:56.171Z,100
2022-11-25T07:03:56.112Z,100
2022-11-25T07:04:56.110Z,100
2022-11-25T07:05:56.105Z,100
2022-11-25T07:06:56.109Z,100
2022-11-25T07:07:56.168Z,100
2022-11-25T07:09:56.112Z,100
2022-11-25T07:10:56.216Z,100
2022-11-25T07:11:56.126Z,100
2022-11-25T07:12:56.112Z,100
2022-11-25T07:13:56.105Z,100
2022-11-25T07:14:56.116Z,100
2022-11-25T07:15:56.182Z,100
2022-11-25T07:16:56.114Z,100
2022-11-25T07:17:56.108Z,100
2022-11-25T07:18:56.125Z,100
2022-11-25T07:19:56.109Z,100
2022-11-25T07:21:56.118Z,100
2022-11-25T07:22:56.134Z,100
2022-11-25T07:24:56.155Z,100
2022-11-25T07:26:56.108Z,100
2022-11-25T07:27:56.124Z,100
2022-11-25T07:30:29.166Z,100
2022-11-25T07:31:24.306Z,100
2022-11-25T07:31:56.128Z,100
2022-11-25T07:32:56.163Z,100
2022-11-25T07:33:56.107Z,100
2022-11-25T07:34:56.117Z,100
2022-11-25T07:35:56.109Z,100
2022-11-25T07:36:56.108Z,100
2022-11-25T07:37:56.117Z,100
2022-11-25T07:38:56.109Z,100
2022-11-25T07:39:56.117Z,100
2022-11-25T07:40:56.129Z,100
2022-11-25T07:41:56.122Z,100
2022-11-25T07:42:56.114Z,100
2022-11-25T07:44:56.113Z,100
2022-11-25T07:45:56.162Z,100
2022-11-25T07:46:56.162Z,100
2022-11-25T07:47:56.112Z,100
2022-11-25T07:48:56.114Z,100
2022-11-25T07:49:56.110Z,100
2022-11-25T07:50:56.113Z,100
2022-11-25T07:51:56.138Z,100
2022-11-25T07:52:56.252Z,100
2022-11-25T07:53:56.137Z,100
2022-11-25T07:54:56.111Z,100
2022-11-25T07:55:56.115Z,100
2022-11-25T07:56:56.109Z,100
2022-11-25T07:57:56.115Z,100
2022-11-25T07:58:56.116Z,100
2022-11-25T07:59:56.127Z,100
2022-11-25T08:00:56.108Z,100
2022-11-25T08:01:56.207Z,100
2022-11-25T08:02:56.201Z,100
2022-11-25T08:03:56.116Z,100
2022-11-25T08:05:56.116Z,100
2022-11-25T08:06:56.119Z,100
2022-11-25T08:07:56.225Z,100
2022-11-25T08:08:56.107Z,100
2022-11-25T08:09:56.121Z,100
2022-11-25T08:10:56.123Z,100
2022-11-25T08:11:56.107Z,100
2022-11-25T08:12:56.114Z,100
2022-11-25T08:13:56.120Z,100
2022-11-25T08:15:56.146Z,100
2022-11-25T08:16:56.118Z,100
2022-11-25T08:17:56.115Z,100
2022-11-25T08:18:56.120Z,100
2022-11-25T08:20:56.112Z,100
2022-11-25T08:21:56.111Z,100
2022-11-25T08:22:56.118Z,100
2022-11-25T08:23:56.116Z,100
2022-11-25T08:24:56.147Z,100
2022-11-25T08:25:56.114Z,100
2022-11-25T08:26:56.107Z,100
2022-11-25T08:27:56.115Z,100
2022-11-25T08:28:56.110Z,100
2022-11-25T08:29:56.120Z,100
2022-11-25T08:30:56.201Z,100
2022-11-25T08:31:56.116Z,100
2022-11-25T08:33:56.112Z,100
2022-11-25T08:34:56.116Z,100
2022-11-25T08:35:56.114Z,100
2022-11-25T08:36:56.117Z,100
2022-11-25T08:38:56.119Z,100
2022-11-25T08:39:56.612Z,100
2022-11-25T08:40:56.113Z,100
2022-11-25T08:41:56.109Z,100
2022-11-25T08:43:56.112Z,100
2022-11-25T08:44:56.166Z,100
2022-11-25T08:45:56.107Z,100
2022-11-25T08:46:56.197Z,100
2022-11-25T08:48:56.122Z,100
2022-11-25T08:49:56.111Z,100
2022-11-25T08:50:56.118Z,100
2022-11-25T08:51:56.117Z,100
2022-11-25T08:52:56.128Z,100
2022-11-25T08:53:56.117Z,100
2022-11-25T08:54:56.112Z,100
2022-11-25T08:55:56.151Z,100
2022-11-25T08:56:56.113Z,100
2022-11-25T08:57:56.128Z,100
2022-11-25T08:58:56.112Z,97.3
2022-11-25T08:59:56.119Z,91.8
2022-11-25T09:00:56.128Z,95.5
2022-11-25T09:01:56.177Z,92
2022-11-25T09:02:56.138Z,86.9
2022-11-25T09:04:56.115Z,83.1
2022-11-25T09:05:56.117Z,86.2
2022-11-25T09:06:56.109Z,87.4
2022-11-25T09:07:56.169Z,83
2022-11-25T09:09:56.120Z,85.1
2022-11-25T09:10:56.186Z,77.5
2022-11-25T09:11:56.112Z,75.7
2022-11-25T09:12:56.121Z,73
2022-11-25T09:13:56.222Z,76.5
2022-11-25T09:14:56.129Z,78.5
2022-11-25T09:15:56.230Z,76.4
2022-11-25T09:16:56.120Z,83.5
2022-11-25T09:17:56.112Z,81.3
2022-11-25T09:19:56.139Z,81
2022-11-25T09:20:56.122Z,86.6
2022-11-25T09:21:56.119Z,82.5
2022-11-25T09:22:56.139Z,84.7
2022-11-25T09:23:56.128Z,85.5
2022-11-25T09:24:56.122Z,89
2022-11-25T09:25:56.116Z,89.4
2022-11-25T09:26:56.141Z,98.3
2022-11-25T09:28:56.120Z,97.4
2022-11-25T09:29:56.124Z,98.3
2022-11-25T09:30:56.207Z,99.1
2022-11-25T09:33:56.122Z,100
2022-11-25T09:34:56.138Z,100
2022-11-25T09:35:56.123Z,100
2022-11-25T09:37:56.185Z,100
2022-11-25T09:38:56.126Z,100
2022-11-25T09:39:56.146Z,100
2022-11-25T09:40:56.123Z,100
2022-11-25T09:41:56.125Z,100
2022-11-25T09:42:56.116Z,99.2
2022-11-25T09:43:56.117Z,96.6
2022-11-25T09:44:56.121Z,96.3
2022-11-25T09:45:56.120Z,97
2022-11-25T09:46:56.202Z,98.3
2022-11-25T09:47:58.023Z,97.9
2022-11-25T09:48:56.125Z,99
2022-11-25T09:49:56.115Z,100
2022-11-25T09:50:56.115Z,100
2022-11-25T09:51:56.113Z,100
2022-11-25T09:52:56.129Z,100
2022-11-25T09:53:56.120Z,100
2022-11-25T09:54:56.130Z,100
2022-11-25T09:56:01.312Z,100
2022-11-25T09:56:56.119Z,100
2022-11-25T09:57:59.490Z,100
2022-11-25T09:58:56.123Z,100
2022-11-25T09:59:56.116Z,100
2022-11-25T10:00:56.126Z,99.7
2022-11-25T10:01:56.183Z,98.6
2022-11-25T10:02:56.282Z,98.6
2022-11-25T10:03:56.111Z,97.7
2022-11-25T10:04:56.114Z,93.3
2022-11-25T10:05:56.118Z,89.8
2022-11-25T10:06:56.183Z,88.4
2022-11-25T10:07:56.123Z,84.3
2022-11-25T10:08:56.119Z,79.8
2022-11-25T10:09:56.116Z,82
2022-11-25T10:11:56.122Z,90.6
2022-11-25T10:12:56.123Z,92.2
2022-11-25T10:13:56.125Z,93.3
2022-11-25T10:14:56.124Z,94
2022-11-25T10:15:56.201Z,95.1
2022-11-25T10:16:56.125Z,96.7
2022-11-25T10:17:56.118Z,98.3
2022-11-25T10:18:56.126Z,98.4
2022-11-25T10:19:56.130Z,98.9
2022-11-25T10:21:56.128Z,97.8
2022-11-25T10:22:56.124Z,99.3
2022-11-25T10:23:56.117Z,98
2022-11-25T10:24:56.146Z,98.3
2022-11-25T10:25:56.116Z,97.7
2022-11-25T10:26:56.126Z,97.4
2022-11-25T10:27:56.121Z,98.1
2022-11-25T10:28:56.146Z,96.4
2022-11-25T10:30:56.202Z,96.2
2022-11-25T10:31:56.143Z,96.3
2022-11-25T10:33:00.866Z,97.3
2022-11-25T10:33:56.115Z,99.5
2022-11-25T10:35:56.117Z,96.2
2022-11-25T10:36:56.122Z,92.8
2022-11-25T10:37:56.135Z,93.8
2022-11-25T10:38:56.123Z,90.5
2022-11-25T10:39:56.125Z,86.6
2022-11-25T10:40:56.120Z,79.6
2022-11-25T10:41:56.125Z,77.7
2022-11-25T10:42:56.115Z,77.9
2022-11-25T10:43:56.124Z,77.2
2022-11-25T10:44:56.125Z,74.1
2022-11-25T10:45:56.123Z,72.5
2022-11-25T10:47:13.376Z,72.4
2022-11-25T10:47:56.214Z,73.1
2022-11-25T10:48:56.122Z,69.3
2022-11-25T10:50:56.134Z,70.7
2022-11-25T10:51:56.126Z,71.5
2022-11-25T10:52:56.130Z,71.8
2022-11-25T10:53:56.124Z,75.1
2022-11-25T10:54:56.121Z,75.5
2022-11-25T10:55:56.118Z,73.9
2022-11-25T10:56:56.134Z,72.8
2022-11-25T10:57:56.129Z,73.4
2022-11-25T10:58:56.122Z,69.5
2022-11-25T11:00:56.135Z,65.2
2022-11-25T11:01:56.166Z,64.9
2022-11-25T11:02:56.198Z,70.6
2022-11-25T11:03:56.121Z,69.1
2022-11-25T11:04:56.122Z,69.2
2022-11-25T11:05:56.420Z,69.4
2022-11-25T11:06:56.131Z,69.8
2022-11-25T11:08:56.125Z,66.1
2022-11-25T11:09:56.123Z,67.2
2022-11-25T11:10:57.403Z,69.8
2022-11-25T11:11:56.129Z,70.1
2022-11-25T11:12:56.124Z,72.1
2022-11-25T11:13:56.121Z,72.3
2022-11-25T11:14:56.127Z,75.8
2022-11-25T11:15:56.177Z,77.2
2022-11-25T11:16:56.146Z,80
2022-11-25T11:17:56.122Z,81.3
2022-11-25T11:18:56.125Z,81.6
2022-11-25T11:19:56.131Z,82
2022-11-25T11:20:56.134Z,80.5
2022-11-25T11:22:56.133Z,81.8
2022-11-25T11:23:56.135Z,80.1
2022-11-25T11:24:56.126Z,79.5
2022-11-25T11:25:56.141Z,77.3
2022-11-25T11:26:56.127Z,74.6
2022-11-25T11:27:56.134Z,71.1
2022-11-25T11:28:56.130Z,71.1
2022-11-25T11:29:56.129Z,69.1
2022-11-25T11:30:56.256Z,68.3
2022-11-25T11:32:56.131Z,67.4
2022-11-25T11:33:56.128Z,65.9
2022-11-25T11:34:56.135Z,68
2022-11-25T11:35:56.124Z,69.7
2022-11-25T11:36:56.127Z,70.6
2022-11-25T11:37:56.144Z,68.4
2022-11-25T11:38:56.127Z,67.7
2022-11-25T11:39:56.128Z,71.6
2022-11-25T11:40:56.129Z,72.4
2022-11-25T11:41:56.123Z,70.6
2022-11-25T11:42:56.130Z,66.4
2022-11-25T11:43:56.129Z,67.7
2022-11-25T11:44:56.128Z,67.1
2022-11-25T11:46:56.178Z,67.4
2022-11-25T11:47:56.130Z,65.8
2022-11-25T11:48:56.125Z,64.7
2022-11-25T11:49:56.130Z,65.1
2022-11-25T11:50:56.132Z,67.9
2022-11-25T11:51:56.133Z,68.6
2022-11-25T11:52:56.124Z,66.8
2022-11-25T11:53:56.131Z,67.9
2022-11-25T11:54:56.136Z,65.2
2022-11-25T11:56:56.146Z,63.7
2022-11-25T11:58:56.131Z,64.7
2022-11-25T11:59:56.149Z,64.4
2022-11-25T12:00:56.139Z,64.1
2022-11-25T12:01:56.266Z,65
2022-11-25T12:02:56.233Z,64.9
2022-11-25T12:03:56.142Z,64.2
2022-11-25T12:04:56.136Z,64.6
2022-11-25T12:05:56.133Z,68
2022-11-25T12:06:56.134Z,70.4
2022-11-25T12:07:56.216Z,70.5
2022-11-25T12:08:56.128Z,72.1
2022-11-25T12:09:56.136Z,73.2
2022-11-25T12:10:56.135Z,71.7
2022-11-25T12:11:56.127Z,74
2022-11-25T12:12:56.139Z,72.5
2022-11-25T12:14:00.714Z,73.1
2022-11-25T12:14:56.150Z,74.3
2022-11-25T12:15:56.192Z,76.2
2022-11-25T12:16:56.147Z,76.6
2022-11-25T12:18:56.135Z,77
2022-11-25T12:19:56.154Z,76.7
2022-11-25T12:20:56.133Z,76.7
2022-11-25T12:21:56.131Z,74.1
2022-11-25T12:22:56.138Z,74.9
2022-11-25T12:23:56.148Z,75.5
2022-11-25T12:24:56.133Z,77.8
2022-11-25T12:25:56.135Z,78.4
2022-11-25T12:26:56.388Z,80.1
2022-11-25T12:28:56.136Z,80.8
2022-11-25T12:29:56.146Z,80.4
2022-11-25T12:30:59.308Z,79.8
2022-11-25T12:31:56.238Z,80
2022-11-25T12:33:56.133Z,77.8
2022-11-25T12:34:56.158Z,77.8
2022-11-25T12:35:56.145Z,77.2
2022-11-25T12:37:56.146Z,73.4
2022-11-25T12:38:56.135Z,73.8
2022-11-25T12:39:56.137Z,74.8
2022-11-25T12:40:56.140Z,75.5
2022-11-25T12:41:56.148Z,76.3
2022-11-25T12:42:56.134Z,79.8
2022-11-25T12:43:56.133Z,79
2022-11-25T12:44:57.139Z,77.8
2022-11-25T12:46:56.136Z,75.1
2022-11-25T12:48:56.134Z,74.3
2022-11-25T12:49:56.140Z,76.1
2022-11-25T12:50:56.132Z,74.4
2022-11-25T12:51:56.132Z,75.8
2022-11-25T12:52:56.136Z,76.4
2022-11-25T12:53:56.141Z,76.7
2022-11-25T12:54:56.143Z,76.7
2022-11-25T12:55:56.152Z,78.9
2022-11-25T12:56:56.143Z,78.7
2022-11-25T12:57:56.132Z,78.6
2022-11-25T12:58:56.187Z,79.9
2022-11-25T13:00:17.516Z,80.8
2022-11-25T13:01:56.326Z,80.7
2022-11-25T13:02:56.203Z,81.7
2022-11-25T13:03:56.167Z,81.5
2022-11-25T13:05:03.691Z,82.1
2022-11-25T13:05:56.143Z,83.1
2022-11-25T13:06:56.135Z,83.1
2022-11-25T13:07:56.263Z,81.4
2022-11-25T13:09:56.142Z,78.1
2022-11-25T13:11:56.571Z,75.6
2022-11-25T13:12:56.554Z,76.7
2022-11-25T13:13:56.514Z,76.9
2022-11-25T13:14:56.583Z,77.6
2022-11-25T13:16:56.728Z,77.5
2022-11-25T13:17:56.192Z,78.4
2022-11-25T13:18:56.147Z,77.9
2022-11-25T13:19:56.149Z,78.7
2022-11-25T13:20:56.148Z,80.1
2022-11-25T13:21:56.145Z,80.6
2022-11-25T13:22:56.139Z,81.1
2022-11-25T13:23:56.152Z,81.3
2022-11-25T13:24:56.134Z,83.1
2022-11-25T13:25:56.138Z,83.1
2022-11-25T13:26:56.146Z,83.2
2022-11-25T13:27:56.139Z,83.9
2022-11-25T13:28:56.136Z,84.5
2022-11-25T13:30:56.134Z,85
2022-11-25T13:32:56.142Z,85.9
2022-11-25T13:33:56.156Z,86.1
2022-11-25T13:34:56.179Z,86.4
2022-11-25T13:35:56.140Z,86.6
2022-11-25T13:37:56.150Z,86.3
2022-11-25T13:38:56.138Z,86.1
2022-11-25T13:39:56.154Z,86.7
2022-11-25T13:40:56.136Z,87.5
2022-11-25T13:41:56.145Z,88
2022-11-25T13:42:56.144Z,86.7
2022-11-25T13:44:01.118Z,87.8
2022-11-25T13:45:03.135Z,87.9
2022-11-25T13:45:56.227Z,87.9
2022-11-25T13:46:56.147Z,87.4
2022-11-25T13:47:56.146Z,88.2
2022-11-25T13:48:56.145Z,88.5
2022-11-25T13:49:56.142Z,87.9
2022-11-25T13:51:10.510Z,87.9
2022-11-25T13:51:56.276Z,88.4
2022-11-25T13:52:56.152Z,88.5
2022-11-25T13:53:56.145Z,88.5
2022-11-25T13:54:56.142Z,88.9
2022-11-25T13:55:56.139Z,89.6
2022-11-25T13:56:56.146Z,89.6
2022-11-25T13:57:56.137Z,90.5
2022-11-25T13:59:56.134Z,89.7
2022-11-25T14:00:56.146Z,90.1
2022-11-25T14:01:56.234Z,89.1
2022-11-25T14:02:56.216Z,89.2
2022-11-25T14:04:56.147Z,89.9
2022-11-25T14:05:56.170Z,89.6
2022-11-25T14:06:56.141Z,89.9
2022-11-25T14:07:56.300Z,89.7
2022-11-25T14:08:56.148Z,89.6
2022-11-25T14:09:56.147Z,89.2
2022-11-25T14:10:56.143Z,90
2022-11-25T14:11:56.146Z,90.1
2022-11-25T14:12:56.143Z,90.5
2022-11-25T14:13:56.135Z,90.2
2022-11-25T14:14:56.145Z,90.9
2022-11-25T14:15:56.205Z,89.9
2022-11-25T14:16:56.210Z,90.3
2022-11-25T14:19:56.329Z,91
2022-11-25T14:20:56.143Z,91.4
2022-11-25T14:22:56.207Z,91.3
2022-11-25T14:23:56.150Z,91.7
2022-11-25T14:24:56.196Z,91.2
2022-11-25T14:26:56.173Z,91.6
2022-11-25T14:27:59.614Z,91.4
2022-11-25T14:28:56.146Z,92.2
2022-11-25T14:29:56.146Z,92.2
2022-11-25T14:30:56.141Z,91.9
2022-11-25T14:31:56.243Z,91.9
2022-11-25T14:32:56.150Z,90.9
2022-11-25T14:33:56.240Z,90.8
2022-11-25T14:34:56.141Z,91.5
2022-11-25T14:35:56.143Z,91.3
2022-11-25T14:36:56.174Z,90.3
2022-11-25T14:37:56.138Z,90.4
2022-11-25T14:38:56.156Z,89.4
2022-11-25T14:40:56.159Z,91.2
2022-11-25T14:42:56.147Z,92.8
2022-11-25T14:43:56.152Z,92.1
2022-11-25T14:44:50.635Z,92.1
2022-11-25T14:45:56.182Z,92.1
2022-11-25T14:46:56.152Z,92
2022-11-25T14:47:56.152Z,91.7
2022-11-25T14:48:56.145Z,93
2022-11-25T14:50:19.008Z,92.9
2022-11-25T14:50:56.146Z,93.2
2022-11-25T14:51:56.143Z,93.4
2022-11-25T14:52:56.140Z,93
2022-11-25T14:53:56.151Z,93.2
2022-11-25T14:54:56.180Z,93.2
2022-11-25T14:55:56.168Z,93.5
2022-11-25T14:57:56.191Z,92.8
2022-11-25T14:58:56.154Z,94.1
2022-11-25T14:59:56.147Z,93.9
2022-11-25T15:00:56.149Z,93.7
2022-11-25T15:01:56.224Z,93.3
2022-11-25T15:02:56.221Z,93.2
2022-11-25T15:03:56.212Z,93.4
2022-11-25T15:04:56.145Z,93.3
2022-11-25T15:05:56.146Z,93.7
2022-11-25T15:07:56.273Z,94.6
2022-11-25T15:08:56.145Z,95.3
2022-11-25T15:09:56.143Z,95.9
2022-11-25T15:10:56.154Z,96.6
2022-11-25T15:11:56.148Z,96.9
2022-11-25T15:12:56.158Z,96.5
2022-11-25T15:13:56.141Z,97.4
2022-11-25T15:14:56.140Z,97.2
2022-11-25T15:15:56.159Z,97
2022-11-25T15:16:56.260Z,97.4
2022-11-25T15:17:56.156Z,97.6
2022-11-25T15:18:56.151Z,97.8
2022-11-25T15:19:56.147Z,97.1
2022-11-25T15:20:56.165Z,98
2022-11-25T15:22:21.844Z,98.8
2022-11-25T15:22:56.143Z,97.6
2022-11-25T15:23:56.149Z,98.3
2022-11-25T15:24:56.593Z,98.4
2022-11-25T15:26:56.148Z,99
2022-11-25T15:27:56.149Z,99.4
2022-11-25T15:28:56.270Z,98.8
2022-11-25T15:29:56.152Z,98.9
2022-11-25T15:31:56.225Z,98.1
2022-11-25T15:32:56.153Z,98.6
2022-11-25T15:33:56.164Z,97.9
2022-11-25T15:34:56.168Z,98.1
2022-11-25T15:36:56.157Z,98.8
2022-11-25T15:37:56.153Z,98.5
2022-11-25T15:38:56.170Z,98.7
2022-11-25T15:39:56.148Z,98.5
2022-11-25T15:40:56.163Z,98.8